createdAt,value
2023-04-02T00:01:16.543Z,100472.66
2023-04-02T00:04:02.846Z,100468.28
2023-04-02T00:06:35.913Z,100470.22
2023-04-02T00:09:23.168Z,100466.56
2023-04-02T00:11:51.530Z,100475.56
2023-04-02T00:14:24.218Z,100474.59
2023-04-02T00:16:52.103Z,100471.91
2023-04-02T00:19:25.573Z,100485.44
2023-04-02T00:21:54.251Z,100480.06
2023-04-02T00:24:22.137Z,100485.91
2023-04-02T00:26:49.297Z,100501.25
2023-04-02T00:29:17.485Z,100496.75
2023-04-02T00:31:46.128Z,100499.53
2023-04-02T00:34:19.050Z,100499.53
2023-04-02T00:36:46.552Z,100500.50
2023-04-02T00:39:20.239Z,100499.66
2023-04-02T00:41:47.089Z,100501.34
2023-04-02T00:44:15.881Z,100511.22
2023-04-02T00:46:44.574Z,100509.28
2023-04-02T00:49:19.045Z,100508.75
2023-04-02T00:51:49.955Z,100510.50
2023-04-02T00:54:21.328Z,100506.94
2023-04-02T00:56:51.931Z,100512.91
2023-04-02T00:59:24.662Z,100506.84
2023-04-02T01:01:53.366Z,100510.50
2023-04-02T01:04:32.507Z,100514.13
2023-04-02T01:07:02.442Z,100517.63
2023-04-02T01:09:44.632Z,100511.44
2023-04-02T01:12:28.696Z,100523.00
2023-04-02T01:15:04.433Z,100525.81
2023-04-02T01:17:44.877Z,100519.47
2023-04-02T01:20:33.385Z,100526.66
2023-04-02T01:23:04.172Z,100534.69
2023-04-02T01:25:40.645Z,100538.09
2023-04-02T01:28:15.547Z,100537.25
2023-04-02T01:30:45.597Z,100538.34
2023-04-02T01:33:12.132Z,100537.47
2023-04-02T01:35:44.613Z,100535.66
2023-04-02T01:38:17.240Z,100542.00
2023-04-02T01:40:49.463Z,100539.31
2023-04-02T01:43:22.071Z,100549.03
2023-04-02T01:45:50.378Z,100545.50
2023-04-02T01:48:18.845Z,100548.19
2023-04-02T01:50:48.579Z,100550.13
2023-04-02T01:53:16.779Z,100556.31
2023-04-02T01:55:45.444Z,100554.38
2023-04-02T01:58:14.583Z,100568.75
2023-04-02T02:00:46.008Z,100568.75
2023-04-02T02:03:14.215Z,100567.88
2023-04-02T02:05:40.997Z,100575.91
2023-04-02T02:08:22.621Z,100577.84
2023-04-02T02:10:49.552Z,100565.31
2023-04-02T02:13:16.406Z,100573.22
2023-04-02T02:15:44.170Z,100573.34
2023-04-02T02:18:12.927Z,100576.88
2023-04-02T02:20:41.814Z,100587.56
2023-04-02T02:23:12.262Z,100587.56
2023-04-02T02:25:39.838Z,100588.44
2023-04-02T02:28:09.602Z,100585.88
2023-04-02T02:30:38.904Z,100585.88
2023-04-02T02:33:10.962Z,100594.75
2023-04-02T02:35:44.373Z,100604.59
2023-04-02T02:38:31.952Z,100605.59
2023-04-02T02:41:02.047Z,100602.78
2023-04-02T02:43:29.011Z,100612.63
2023-04-02T02:45:56.559Z,100615.31
2023-04-02T02:48:27.276Z,100620.66
2023-04-02T02:50:56.371Z,100626.88
2023-04-02T02:53:24.340Z,100633.06
2023-04-02T02:55:55.617Z,100624.19
2023-04-02T02:58:25.252Z,100636.59
2023-04-02T03:00:51.972Z,100634.75
2023-04-02T03:03:22.010Z,100640.25
2023-04-02T03:05:52.639Z,100637.69
2023-04-02T03:08:27.569Z,100627.84
2023-04-02T03:11:00.229Z,100641.22
2023-04-02T03:13:30.422Z,100636.50
2023-04-02T03:16:03.485Z,100635.88
2023-04-02T03:18:38.508Z,100640.47
2023-04-02T03:21:17.711Z,100651.19
2023-04-02T03:23:48.930Z,100648.50
2023-04-02T03:26:18.936Z,100663.56
2023-04-02T03:28:50.047Z,100661.03
2023-04-02T03:31:22.621Z,100669.91
2023-04-02T03:33:54.934Z,100663.69
2023-04-02T03:36:28.270Z,100669.91
2023-04-02T03:39:01.853Z,100672.72
2023-04-02T03:41:34.777Z,100670.03
2023-04-02T03:44:06.160Z,100671.97
2023-04-02T03:46:36.846Z,100675.25
2023-04-02T03:49:07.645Z,100678.78
2023-04-02T03:51:40.069Z,100688.63
2023-04-02T03:54:13.739Z,100697.63
2023-04-02T03:56:40.378Z,100703.09
2023-04-02T03:59:14.802Z,100700.53
2023-04-02T04:01:45.096Z,100706.66
2023-04-02T04:04:16.993Z,100701.28
2023-04-02T04:06:49.046Z,100701.38
2023-04-02T04:09:23.108Z,100709.41
2023-04-02T04:11:53.679Z,100706.66
2023-04-02T04:14:28.139Z,100716.47
2023-04-02T04:17:01.493Z,100716.47
2023-04-02T04:19:34.426Z,100713.91
2023-04-02T04:22:09.742Z,100720.97
2023-04-02T04:24:37.581Z,100722.91
2023-04-02T04:27:09.306Z,100727.16
2023-04-02T04:29:41.034Z,100728.16
2023-04-02T04:32:16.850Z,100727.16
2023-04-02T04:34:46.811Z,100728.03
2023-04-02T04:37:18.633Z,100738.13
2023-04-02T04:39:50.934Z,100738.00
2023-04-02T04:42:22.593Z,100742.59
2023-04-02T04:44:55.265Z,100735.53
2023-04-02T04:47:28.938Z,100737.38
2023-04-02T04:49:58.117Z,100751.38
2023-04-02T04:52:26.563Z,100751.59
2023-04-02T04:54:54.651Z,100753.41
2023-04-02T04:57:30.240Z,100758.66
2023-04-02T05:00:02.975Z,100766.56
2023-04-02T05:02:33.169Z,100758.66
2023-04-02T05:05:02.214Z,100770.31
2023-04-02T05:07:31.581Z,100764.97
2023-04-02T05:10:06.405Z,100771.28
2023-04-02T05:12:37.781Z,100769.59
2023-04-02T05:15:11.078Z,100771.16
2023-04-02T05:17:46.688Z,100782.84
2023-04-02T05:20:18.717Z,100778.34
2023-04-02T05:22:50.365Z,100777.50
2023-04-02T05:25:23.238Z,100784.69
2023-04-02T05:27:54.407Z,100787.34
2023-04-02T05:30:42.913Z,100787.22
2023-04-02T05:33:21.238Z,100791.72
2023-04-02T05:35:56.020Z,100803.41
2023-04-02T05:38:26.367Z,100805.31
2023-04-02T05:41:00.403Z,100803.50
2023-04-02T05:43:29.997Z,100812.41
2023-04-02T05:46:01.864Z,100816.78
2023-04-02T05:48:34.781Z,100826.50
2023-04-02T05:51:03.928Z,100820.44
2023-04-02T05:53:34.051Z,100822.97
2023-04-02T05:56:07.601Z,100829.31
2023-04-02T05:58:38.079Z,100831.13
2023-04-02T06:01:14.165Z,100838.91
2023-04-02T06:03:45.353Z,100838.19
2023-04-02T06:06:19.174Z,100846.31
2023-04-02T06:08:55.238Z,100840.88
2023-04-02T06:11:27.991Z,100846.31
2023-04-02T06:13:54.572Z,100846.44
2023-04-02T06:16:25.149Z,100853.69
2023-04-02T06:18:51.716Z,100849.22
2023-04-02T06:21:20.454Z,100859.03
2023-04-02T06:23:53.220Z,100867.72
2023-04-02T06:26:25.650Z,100872.31
2023-04-02T06:28:57.999Z,100873.31
2023-04-02T06:31:33.256Z,100881.41
2023-04-02T06:33:59.855Z,100884.84
2023-04-02T06:36:27.726Z,100894.59
2023-04-02T06:38:58.809Z,100892.88
2023-04-02T06:41:26.592Z,100888.38
2023-04-02T06:43:56.438Z,100888.47
2023-04-02T06:46:28.598Z,100892.03
2023-04-02T06:49:03.084Z,100894.03
2023-04-02T06:51:32.582Z,100897.47
2023-04-02T06:53:59.080Z,100909.16
2023-04-02T06:56:38.003Z,100916.09
2023-04-02T06:59:04.528Z,100920.69
2023-04-02T07:01:36.116Z,100925.06
2023-04-02T07:04:02.959Z,100927.03
2023-04-02T07:06:29.580Z,100935.91
2023-04-02T07:08:56.083Z,100941.25
2023-04-02T07:11:22.787Z,100941.97
2023-04-02T07:13:50.795Z,100936.97
2023-04-02T07:16:19.716Z,100944.13
2023-04-02T07:18:47.406Z,100954.91
2023-04-02T07:21:14.091Z,100959.22
2023-04-02T07:23:40.683Z,100957.59
2023-04-02T07:26:08.616Z,100970.97
2023-04-02T07:28:35.221Z,100972.72
2023-04-02T07:31:03.061Z,100977.22
2023-04-02T07:33:30.498Z,100979.00
2023-04-02T07:35:58.188Z,100978.16
2023-04-02T07:38:24.829Z,100983.50
2023-04-02T07:40:51.377Z,100984.34
2023-04-02T07:43:17.872Z,100994.97
2023-04-02T07:45:44.349Z,100988.84
2023-04-02T07:48:13.893Z,100987.91
2023-04-02T07:50:40.741Z,100997.84
2023-04-02T07:53:07.361Z,101000.41
2023-04-02T07:55:34.258Z,101005.88
2023-04-02T07:58:00.920Z,101008.53
2023-04-02T08:00:27.907Z,101012.19
2023-04-02T08:02:54.590Z,101016.56
2023-04-02T08:05:22.589Z,101019.25
2023-04-02T08:07:52.912Z,101021.91
2023-04-02T08:10:19.507Z,101019.38
2023-04-02T08:12:45.958Z,101025.56
2023-04-02T08:15:15.216Z,101029.28
2023-04-02T08:17:41.802Z,101032.81
2023-04-02T08:20:14.160Z,101030.25
2023-04-02T08:22:42.123Z,101031.97
2023-04-02T08:25:09.625Z,101035.63
2023-04-02T08:27:36.193Z,101034.66
2023-04-02T08:30:03.562Z,101043.53
2023-04-02T08:32:30.123Z,101047.16
2023-04-02T08:34:56.603Z,101045.34
2023-04-02T08:37:23.081Z,101039.03
2023-04-02T08:39:50.866Z,101050.56
2023-04-02T08:42:26.731Z,101050.56
2023-04-02T08:45:10.882Z,101055.06
2023-04-02T08:47:48.985Z,101057.75
2023-04-02T08:50:27.921Z,101060.34
2023-04-02T08:52:54.955Z,101059.38
2023-04-02T08:55:34.813Z,101061.41
2023-04-02T08:58:09.449Z,101067.50
2023-04-02T09:00:39.151Z,101071.97
2023-04-02T09:03:10.437Z,101075.63
2023-04-02T09:05:40.666Z,101079.25
2023-04-02T09:08:17.264Z,101090.69
2023-04-02T09:10:51.404Z,101101.50
2023-04-02T09:13:22.725Z,101093.38
2023-04-02T09:15:52.586Z,101098.63
2023-04-02T09:18:20.391Z,101096.16
2023-04-02T09:20:47.396Z,101115.66
2023-04-02T09:23:16.823Z,101119.38
2023-04-02T09:25:57.429Z,101120.13
2023-04-02T09:28:28.055Z,101128.28
2023-04-02T09:31:01.714Z,101122.16
2023-04-02T09:33:42.981Z,101132.56
2023-04-02T09:36:19.238Z,101126.56
2023-04-02T09:38:58.829Z,101127.50
2023-04-02T09:41:29.109Z,101132.75
2023-04-02T09:44:12.740Z,101137.25
2023-04-02T09:46:48.895Z,101132.75
2023-04-02T09:49:17.301Z,101138.13
2023-04-02T09:51:43.755Z,101133.50
2023-04-02T09:54:15.766Z,101140.69
2023-04-02T09:57:02.266Z,101148.81
2023-04-02T09:59:28.997Z,101147.97
2023-04-02T10:02:00.593Z,101143.47
2023-04-02T10:04:37.409Z,101156.84
2023-04-02T10:07:05.462Z,101153.31
2023-04-02T10:09:34.068Z,101160.56
2023-04-02T10:12:04.880Z,101167.53
2023-04-02T10:14:35.218Z,101167.75
2023-04-02T10:17:08.260Z,101172.13
2023-04-02T10:19:37.817Z,101170.28
2023-04-02T10:22:11.091Z,101167.63
2023-04-02T10:24:37.666Z,101170.28
2023-04-02T10:27:16.695Z,101175.56
2023-04-02T10:29:53.489Z,101174.78
2023-04-02T10:32:24.566Z,101186.34
2023-04-02T10:34:57.902Z,101185.50
2023-04-02T10:37:53.679Z,101180.13
2023-04-02T10:40:25.620Z,101185.41
2023-04-02T10:43:02.786Z,101187.31
2023-04-02T10:45:42.064Z,101187.13
2023-04-02T10:48:20.082Z,101194.28
2023-04-02T10:50:52.714Z,101204.03
2023-04-02T10:53:23.884Z,101196.97
2023-04-02T10:55:55.169Z,101194.09
2023-04-02T10:58:26.288Z,101200.59
2023-04-02T11:00:58.500Z,101185.50
2023-04-02T11:03:32.238Z,101196.09
2023-04-02T11:06:02.261Z,101194.19
2023-04-02T11:08:38.365Z,101201.47
2023-04-02T11:11:10.904Z,101190.75
2023-04-02T11:13:46.640Z,101195.16
2023-04-02T11:16:13.750Z,101190.56
2023-04-02T11:18:40.252Z,101209.16
2023-04-02T11:21:07.009Z,101203.81
2023-04-02T11:23:39.664Z,101214.72
2023-04-02T11:26:26.045Z,101212.03
2023-04-02T11:29:07.131Z,101209.16
2023-04-02T11:31:34.267Z,101224.44
2023-04-02T11:34:00.888Z,101227.25
2023-04-02T11:36:47.185Z,101232.47
2023-04-02T11:39:17.479Z,101236.13
2023-04-02T11:42:00.424Z,101238.06
2023-04-02T11:44:28.420Z,101241.66
2023-04-02T11:47:15.831Z,101246.81
2023-04-02T11:49:57.954Z,101258.38
2023-04-02T11:52:29.194Z,101253.13
2023-04-02T11:54:58.634Z,101254.84
2023-04-02T11:57:37.237Z,101253.13
2023-04-02T12:00:27.185Z,101256.66
2023-04-02T12:03:13.132Z,101250.47
2023-04-02T12:05:47.940Z,101268.34
2023-04-02T12:08:29.118Z,101271.88
2023-04-02T12:10:58.048Z,101278.19
2023-04-02T12:13:44.305Z,101277.28
2023-04-02T12:16:13.073Z,101280.75
2023-04-02T12:18:43.016Z,101275.41
2023-04-02T12:21:15.685Z,101286.22
2023-04-02T12:23:46.471Z,101289.72
2023-04-02T12:26:27.692Z,101295.81
2023-04-02T12:28:54.148Z,101298.63
2023-04-02T12:31:24.248Z,101300.44
2023-04-02T12:33:52.633Z,101305.88
2023-04-02T12:36:21.258Z,101300.50
2023-04-02T12:38:50.423Z,101299.56
2023-04-02T12:41:22.203Z,101295.09
2023-04-02T12:43:57.201Z,101303.13
2023-04-02T12:46:25.145Z,101306.44
2023-04-02T12:48:51.962Z,101305.88
2023-04-02T12:51:18.692Z,101313.81
2023-04-02T12:53:50.239Z,101307.59
2023-04-02T12:56:19.196Z,101309.50
2023-04-02T12:58:53.147Z,101315.63
2023-04-02T13:01:20.529Z,101312.06
2023-04-02T13:04:04.670Z,101315.72
2023-04-02T13:06:31.534Z,101316.56
2023-04-02T13:08:59.953Z,101320.22
2023-04-02T13:11:35.409Z,101315.72
2023-04-02T13:14:03.347Z,101326.41
2023-04-02T13:16:34.647Z,101330.06
2023-04-02T13:19:21.090Z,101326.41
2023-04-02T13:21:48.188Z,101329.19
2023-04-02T13:24:18.455Z,101331.00
2023-04-02T13:26:45.384Z,101340.81
2023-04-02T13:29:20.329Z,101336.25
2023-04-02T13:31:46.806Z,101335.47
2023-04-02T13:34:14.881Z,101337.09
2023-04-02T13:36:41.358Z,101333.56
2023-04-02T13:39:07.849Z,101340.75
2023-04-02T13:41:39.593Z,101344.28
2023-04-02T13:44:06.187Z,101355.84
2023-04-02T13:46:34.576Z,101356.69
2023-04-02T13:49:01.587Z,101348.78
2023-04-02T13:51:35.875Z,101356.69
2023-04-02T13:54:02.628Z,101354.13
2023-04-02T13:56:29.168Z,101352.31
2023-04-02T13:58:55.669Z,101354.13
2023-04-02T14:01:24.552Z,101355.94
2023-04-02T14:03:51.644Z,101352.13
2023-04-02T14:06:28.239Z,101344.28
2023-04-02T14:09:02.786Z,101353.16
2023-04-02T14:11:39.535Z,101349.53
2023-04-02T14:14:19.380Z,101348.78
2023-04-02T14:16:56.688Z,101356.88
2023-04-02T14:19:37.793Z,101361.28
2023-04-02T14:22:20.632Z,101355.75
2023-04-02T14:24:57.682Z,101363.97
2023-04-02T14:27:35.337Z,101358.63
2023-04-02T14:30:08.322Z,101357.66
2023-04-02T14:32:43.975Z,101361.38
2023-04-02T14:35:19.089Z,101367.56
2023-04-02T14:37:52.924Z,101359.56
2023-04-02T14:40:26.977Z,101359.66
2023-04-02T14:42:59.760Z,101354.19
2023-04-02T14:45:42.507Z,101346.19
2023-04-02T14:48:20.187Z,101347.16
2023-04-02T14:50:47.484Z,101346.09
2023-04-02T14:53:19.906Z,101347.06
2023-04-02T14:55:51.071Z,101342.75
2023-04-02T14:58:22.064Z,101348.00
2023-04-02T15:00:56.502Z,101344.38
2023-04-02T15:03:25.361Z,101347.16
2023-04-02T15:05:55.301Z,101341.78
2023-04-02T15:08:25.969Z,101340.94
2023-04-02T15:11:04.271Z,101343.63
2023-04-02T15:13:37.338Z,101352.59
2023-04-02T15:16:11.716Z,101351.75
2023-04-02T15:18:38.533Z,101349.06
2023-04-02T15:21:19.884Z,101356.13
2023-04-02T15:23:55.351Z,101355.28
2023-04-02T15:26:29.661Z,101365.13
2023-04-02T15:29:03.832Z,101362.53
2023-04-02T15:31:30.789Z,101365.97
2023-04-02T15:34:07.947Z,101363.38
2023-04-02T15:36:48.018Z,101367.78
2023-04-02T15:39:31.457Z,101367.03
2023-04-02T15:42:10.501Z,101373.88
2023-04-02T15:44:43.338Z,101367.88
2023-04-02T15:47:17.975Z,101371.41
2023-04-02T15:49:54.535Z,101368.84
2023-04-02T15:52:29.743Z,101365.31
2023-04-02T15:55:04.503Z,101368.84
2023-04-02T15:57:49.779Z,101366.16
2023-04-02T16:00:25.453Z,101365.31
2023-04-02T16:03:05.174Z,101360.69
2023-04-02T16:05:39.453Z,101361.66
2023-04-02T16:08:25.557Z,101367.03
2023-04-02T16:10:52.635Z,101375.03
2023-04-02T16:13:28.951Z,101367.97
2023-04-02T16:16:01.686Z,101379.53
2023-04-02T16:18:38.081Z,101383.06
2023-04-02T16:21:04.725Z,101390.13
2023-04-02T16:23:34.377Z,101390.97
2023-04-02T16:26:09.687Z,101396.44
2023-04-02T16:28:46.288Z,101385.84
2023-04-02T16:31:19.532Z,101385.94
2023-04-02T16:33:55.852Z,101389.44
2023-04-02T16:36:35.008Z,101392.06
2023-04-02T16:39:08.734Z,101390.31
2023-04-02T16:41:51.771Z,101389.28
2023-04-02T16:44:30.689Z,101391.19
2023-04-02T16:47:09.150Z,101396.56
2023-04-02T16:49:43.283Z,101404.66
2023-04-02T16:52:22.582Z,101412.66
2023-04-02T16:55:02.528Z,101411.72
2023-04-02T16:57:39.011Z,101411.81
2023-04-02T17:00:19.787Z,101416.31
2023-04-02T17:03:00.846Z,101421.56
2023-04-02T17:05:30.688Z,101408.19
2023-04-02T17:08:10.995Z,101414.50
2023-04-02T17:10:46.116Z,101417.06
2023-04-02T17:13:24.078Z,101420.69
2023-04-02T17:16:01.467Z,101421.66
2023-04-02T17:18:28.027Z,101423.38
2023-04-02T17:20:57.169Z,101428.72
2023-04-02T17:23:25.934Z,101429.56
2023-04-02T17:25:55.892Z,101434.06
2023-04-02T17:28:25.223Z,101428.72
2023-04-02T17:30:55.609Z,101427.19
2023-04-02T17:33:22.287Z,101435.03
2023-04-02T17:35:58.879Z,101430.66
2023-04-02T17:38:34.765Z,101442.09
2023-04-02T17:41:08.595Z,101442.09
2023-04-02T17:43:44.744Z,101442.09
2023-04-02T17:46:22.610Z,101436.75
2023-04-02T17:48:57.932Z,101430.66
2023-04-02T17:51:32.743Z,101437.78
2023-04-02T17:54:12.203Z,101437.72
2023-04-02T17:56:53.277Z,101437.72
2023-04-02T17:59:31.650Z,101446.59
2023-04-02T18:02:17.293Z,101443.91
2023-04-02T18:04:53.226Z,101443.06
2023-04-02T18:07:30.748Z,101442.09
2023-04-02T18:10:03.152Z,101445.72
2023-04-02T18:12:44.650Z,101447.44
2023-04-02T18:15:35.097Z,101442.19
2023-04-02T18:18:18.111Z,101442.19
2023-04-02T18:20:56.799Z,101445.72
2023-04-02T18:23:38.827Z,101443.13
2023-04-02T18:26:12.948Z,101440.47
2023-04-02T18:28:53.506Z,101449.38
2023-04-02T18:31:29.481Z,101448.47
2023-04-02T18:34:17.711Z,101458.25
2023-04-02T18:36:56.152Z,101456.50
2023-04-02T18:39:35.852Z,101457.47
2023-04-02T18:42:09.626Z,101461.97
2023-04-02T18:44:51.876Z,101464.63
2023-04-02T18:47:25.287Z,101457.56
2023-04-02T18:50:04.973Z,101459.34
2023-04-02T18:52:31.453Z,101466.53
2023-04-02T18:55:05.612Z,101470.94
2023-04-02T18:57:35.796Z,101469.19
2023-04-02T19:00:04.813Z,101477.22
2023-04-02T19:02:41.533Z,101479.91
2023-04-02T19:05:22.311Z,101484.38
2023-04-02T19:07:52.095Z,101488.03
2023-04-02T19:10:28.849Z,101481.81
2023-04-02T19:12:55.337Z,101487.16
2023-04-02T19:15:27.391Z,101493.44
2023-04-02T19:18:03.184Z,101501.47
2023-04-02T19:20:40.422Z,101516.59
2023-04-02T19:23:23.177Z,101520.97
2023-04-02T19:25:59.721Z,101527.34
2023-04-02T19:28:32.134Z,101534.44
2023-04-02T19:31:10.937Z,101531.78
2023-04-02T19:33:45.155Z,101535.31
2023-04-02T19:36:35.227Z,101530.88
2023-04-02T19:39:19.608Z,101539.88
2023-04-02T19:41:49.797Z,101540.84
2023-04-02T19:44:17.803Z,101546.19
2023-04-02T19:46:45.208Z,101542.66
2023-04-02T19:49:14.706Z,101551.53
2023-04-02T19:51:42.493Z,101552.50
2023-04-02T19:54:09.722Z,101550.66
2023-04-02T19:56:36.193Z,101555.06
2023-04-02T19:59:16.763Z,101558.69
2023-04-02T20:01:44.375Z,101565.84
2023-04-02T20:04:11.016Z,101563.19
2023-04-02T20:06:37.631Z,101559.63
2023-04-02T20:09:05.460Z,101558.75
2023-04-02T20:11:34.101Z,101570.31
2023-04-02T20:14:00.532Z,101563.25
2023-04-02T20:16:27.234Z,101564.97
2023-04-02T20:18:53.756Z,101569.47
2023-04-02T20:21:20.353Z,101567.84
2023-04-02T20:23:46.972Z,101570.44
2023-04-02T20:26:14.764Z,101571.38
2023-04-02T20:28:41.243Z,101564.28
2023-04-02T20:31:10.080Z,101572.25
2023-04-02T20:33:36.973Z,101574.09
2023-04-02T20:36:06.521Z,101578.53
2023-04-02T20:38:33.285Z,101573.25
2023-04-02T20:41:00.329Z,101561.69
2023-04-02T20:43:28.673Z,101568.00
2023-04-02T20:45:55.995Z,101568.84
2023-04-02T20:48:22.870Z,101573.34
2023-04-02T20:50:49.598Z,101571.59
2023-04-02T20:53:16.266Z,101567.22
2023-04-02T20:55:42.936Z,101568.06
2023-04-02T20:58:09.411Z,101568.91
2023-04-02T21:00:37.668Z,101568.91
2023-04-02T21:03:04.309Z,101567.31
2023-04-02T21:05:30.848Z,101571.69
2023-04-02T21:07:57.554Z,101575.22
2023-04-02T21:10:24.153Z,101584.22
2023-04-02T21:12:50.634Z,101577.03
2023-04-02T21:15:17.328Z,101578.00
2023-04-02T21:17:45.133Z,101584.28
2023-04-02T21:20:12.685Z,101585.16
2023-04-02T21:22:39.277Z,101580.84
2023-04-02T21:25:06.357Z,101586.19
2023-04-02T21:27:32.839Z,101582.75
2023-04-02T21:29:59.334Z,101592.41
2023-04-02T21:32:25.877Z,101594.28
2023-04-02T21:34:53.700Z,101592.56
2023-04-02T21:37:20.312Z,101589.84
2023-04-02T21:39:46.921Z,101590.75
2023-04-02T21:42:13.378Z,101591.72
2023-04-02T21:44:39.830Z,101590.94
2023-04-02T21:47:06.413Z,101588.25
2023-04-02T21:49:33.083Z,101592.75
2023-04-02T21:52:00.861Z,101598.94
2023-04-02T21:54:27.407Z,101599.84
2023-04-02T21:56:54.034Z,101596.38
2023-04-02T21:59:20.581Z,101589.31
2023-04-02T22:01:49.322Z,101599.06
2023-04-02T22:04:18.182Z,101589.16
2023-04-02T22:06:45.723Z,101590.19
2023-04-02T22:09:15.961Z,101591.03
2023-04-02T22:11:45.233Z,101588.44
2023-04-02T22:14:12.120Z,101583.97
2023-04-02T22:16:39.462Z,101588.44
2023-04-02T22:19:08.439Z,101591.19
2023-04-02T22:21:35.931Z,101588.53
2023-04-02T22:24:04.419Z,101590.34
2023-04-02T22:26:33.707Z,101583.19
2023-04-02T22:29:00.810Z,101594.84
2023-04-02T22:31:29.391Z,101582.41
2023-04-02T22:33:57.559Z,101586.03
2023-04-02T22:36:25.137Z,101590.50
2023-04-02T22:38:51.783Z,101584.31
2023-04-02T22:41:20.343Z,101578.97
2023-04-02T22:43:49.718Z,101585.16
2023-04-02T22:46:18.102Z,101570.94
2023-04-02T22:48:46.013Z,101570.94
2023-04-02T22:51:14.926Z,101573.78
2023-04-02T22:53:41.890Z,101568.44
2023-04-02T22:56:09.766Z,101572.94
2023-04-02T22:58:37.459Z,101573.78
2023-04-02T23:01:07.037Z,101570.25
2023-04-02T23:03:33.543Z,101573.78
2023-04-02T23:06:01.754Z,101562.25
2023-04-02T23:08:28.358Z,101560.53
2023-04-02T23:11:01.772Z,101558.72
2023-04-02T23:13:28.419Z,101565.88
2023-04-02T23:15:55.091Z,101569.41
2023-04-02T23:18:22.899Z,101567.75
2023-04-02T23:20:49.352Z,101566.91
2023-04-02T23:23:15.869Z,101559.75
2023-04-02T23:25:42.301Z,101563.38
2023-04-02T23:28:10.286Z,101566.03
2023-04-02T23:30:36.922Z,101564.28
2023-04-02T23:33:04.841Z,101566.03
2023-04-02T23:35:32.946Z,101558.94
2023-04-02T23:37:59.477Z,101557.25
2023-04-02T23:40:25.931Z,101563.44
2023-04-02T23:42:52.400Z,101551.13
2023-04-02T23:45:18.890Z,101558.19
2023-04-02T23:47:45.444Z,101559.16
2023-04-02T23:50:11.942Z,101556.47
2023-04-02T23:52:39.765Z,101555.59
2023-04-02T23:55:06.491Z,101555.69
2023-04-02T23:57:33.008Z,101554.75
2023-04-02T23:59:59.511Z,101555.69
